Time;durP1;ratioP1;P1;durP2;ratioP2;P2;SDS_P1;SDS_P2;PMS_P1;PMS_P2;Temp;Humidity;BMP_temperature;BMP_pressure;BME280_temperature;BME280_humidity;BME280_pressure;Samples;Min_cycle;Max_cycle;Signal;HPM_P1;HPM_P2
2023/04/03 00:00:11;;;;;;;29.98;16.25;;;11.80;87.60;;;;;;7380945;19;20063;-71
2023/04/03 00:02:40;;;;;;;30.27;15.85;;;11.80;87.50;;;;;;7400186;19;20007;-71
2023/04/03 00:05:12;;;;;;;28.55;14.05;;;11.80;87.30;;;;;;7379821;19;20006;-71
2023/04/03 00:07:40;;;;;;;25.90;14.35;;;11.80;87.20;;;;;;7379483;19;20535;-72
2023/04/03 00:10:11;;;;;;;23.50;14.20;;;11.80;87.90;;;;;;7380358;19;20007;-72
2023/04/03 00:12:40;;;;;;;24.48;14.45;;;11.70;86.90;;;;;;7379286;19;20003;-72
2023/04/03 00:15:10;;;;;;;24.50;14.75;;;11.60;86.90;;;;;;7380126;19;20027;-72
2023/04/03 00:17:38;;;;;;;28.17;14.50;;;11.70;87.20;;;;;;7401530;19;20010;-72
2023/04/03 00:20:11;;;;;;;30.08;14.52;;;11.80;87.10;;;;;;7379314;19;20059;-71
2023/04/03 00:22:40;;;;;;;28.05;14.27;;;11.80;87.40;;;;;;7377327;19;20002;-72
2023/04/03 00:25:10;;;;;;;29.27;14.80;;;11.90;87.30;;;;;;7380102;19;20010;-71
2023/04/03 00:27:39;;;;;;;27.85;15.23;;;11.90;86.90;;;;;;7379066;19;20007;-72
2023/04/03 00:30:10;;;;;;;28.45;16.65;;;11.90;87.00;;;;;;7379469;19;20023;-72
2023/04/03 00:32:39;;;;;;;35.17;16.83;;;11.90;87.30;;;;;;7402541;19;20024;-72
2023/04/03 00:35:11;;;;;;;38.58;17.38;;;11.70;86.80;;;;;;7380499;19;20255;-72
2023/04/03 00:37:40;;;;;;;31.58;17.48;;;11.70;87.40;;;;;;7380078;19;20322;-71
2023/04/03 00:40:10;;;;;;;38.30;17.02;;;11.60;87.30;;;;;;7380374;19;20226;-72
2023/04/03 00:42:39;;;;;;;33.67;17.57;;;11.70;87.40;;;;;;7378576;19;20027;-72
2023/04/03 00:45:28;;;;;;;30.70;17.67;;;11.60;87.50;;;;;;7379043;19;20003;-71
2023/04/03 00:47:59;;;;;;;33.35;16.63;;;11.70;87.70;;;;;;7377323;19;20022;-71
2023/04/03 00:50:31;;;;;;;29.92;16.17;;;11.70;87.70;;;;;;7400724;19;20031;-72
2023/04/03 00:53:01;;;;;;;33.33;16.30;;;11.70;88.10;;;;;;7378280;19;20006;-71
2023/04/03 00:55:30;;;;;;;31.80;16.20;;;11.70;87.40;;;;;;7378064;19;20338;-72
2023/04/03 00:58:00;;;;;;;27.60;15.63;;;11.70;88.10;;;;;;7378885;19;20010;-72
2023/04/03 01:00:29;;;;;;;29.42;15.13;;;11.70;87.30;;;;;;7377423;19;20015;-71
2023/04/03 01:02:58;;;;;;;33.53;16.38;;;11.70;87.10;;;;;;7378056;19;20369;-71
2023/04/03 01:05:30;;;;;;;30.98;15.57;;;11.70;87.00;;;;;;7399457;19;20014;-72
2023/04/03 01:08:00;;;;;;;31.45;15.32;;;11.70;86.80;;;;;;7377749;19;20061;-72
2023/04/03 01:10:29;;;;;;;31.45;15.93;;;11.70;86.80;;;;;;7378237;19;20115;-72
2023/04/03 01:12:58;;;;;;;28.83;15.43;;;11.60;86.50;;;;;;7377897;19;20003;-72
2023/04/03 01:15:30;;;;;;;32.80;16.40;;;11.60;86.90;;;;;;7377950;19;20007;-72
2023/04/03 01:18:00;;;;;;;26.60;15.60;;;11.70;86.80;;;;;;7376815;19;20007;-72
2023/04/03 01:21:11;;;;;;;25.27;15.02;;;11.60;86.80;;;;;;7400069;19;20018;-72
2023/04/03 01:23:56;;;;;;;34.58;16.77;;;11.60;86.80;;;;;;7377944;19;20002;-72
2023/04/03 01:26:25;;;;;;;27.00;15.50;;;11.50;86.60;;;;;;7377371;19;20020;-72
2023/04/03 01:28:56;;;;;;;39.50;16.73;;;11.60;86.70;;;;;;7377506;19;20399;-72
2023/04/03 01:31:29;;;;;;;33.92;16.67;;;11.50;86.70;;;;;;7378918;19;20007;-72
2023/04/03 01:34:00;;;;;;;32.42;16.15;;;11.60;87.10;;;;;;7378901;19;20018;-73
2023/04/03 01:36:31;;;;;;;35.35;18.38;;;11.70;87.00;;;;;;7383822;19;19998;-72
2023/04/03 01:39:02;;;;;;;32.83;17.17;;;11.60;86.90;;;;;;7385575;19;20374;-72
2023/04/03 01:41:31;;;;;;;32.22;16.38;;;11.70;86.90;;;;;;7407539;19;20006;-72
2023/04/03 01:43:59;;;;;;;29.65;15.98;;;11.80;86.90;;;;;;7385115;19;20003;-72
2023/04/03 01:46:28;;;;;;;35.13;16.98;;;11.80;86.90;;;;;;7384273;19;20365;-72
2023/04/03 01:49:00;;;;;;;28.27;17.02;;;11.80;86.60;;;;;;7384927;19;20007;-72
2023/04/03 01:51:28;;;;;;;34.78;16.73;;;11.80;86.50;;;;;;7384588;19;20052;-72
2023/04/03 01:53:57;;;;;;;31.75;15.75;;;11.80;86.30;;;;;;7384478;19;20007;-72
2023/04/03 01:56:26;;;;;;;28.77;16.60;;;11.60;86.00;;;;;;7402700;19;20011;-72
2023/04/03 01:58:55;;;;;;;36.72;16.23;;;11.30;86.50;;;;;;7383742;19;20477;-72
2023/04/03 02:01:25;;;;;;;31.58;16.05;;;11.40;86.80;;;;;;7384139;19;20792;-71
2023/04/03 02:03:54;;;;;;;35.67;16.77;;;11.50;86.90;;;;;;7384262;19;20082;-71
2023/04/03 02:06:25;;;;;;;35.53;17.17;;;11.50;87.70;;;;;;7382184;19;20002;-71
2023/04/03 02:08:54;;;;;;;;;;;11.60;86.90;;;;;;7384232;19;20694;-72
2023/04/03 02:11:23;;;;;;;31.15;15.40;;;11.70;86.90;;;;;;7405032;19;20205;-70
2023/04/03 02:13:51;;;;;;;33.20;16.25;;;11.70;86.80;;;;;;7382845;19;20517;-72
2023/04/03 02:16:20;;;;;;;32.90;16.27;;;11.60;86.50;;;;;;7384093;19;20087;-72
2023/04/03 02:18:49;;;;;;;29.88;15.63;;;11.70;86.70;;;;;;7384937;19;20035;-72
2023/04/03 02:21:18;;;;;;;31.23;16.25;;;11.60;86.50;;;;;;7385310;19;20066;-72
2023/04/03 02:23:49;;;;;;;29.23;15.27;;;11.50;86.80;;;;;;7405950;19;20011;-72
2023/04/03 02:26:19;;;;;;;34.05;15.68;;;11.60;86.80;;;;;;7383025;19;20058;-72
2023/04/03 02:28:48;;;;;;;29.92;16.40;;;11.60;86.90;;;;;;7381852;19;20035;-72
2023/04/03 02:31:17;;;;;;;32.63;17.25;;;11.60;87.00;;;;;;7383550;19;20019;-72
2023/04/03 02:33:46;;;;;;;36.05;17.92;;;11.60;87.20;;;;;;7383282;19;20017;-72
2023/04/03 02:36:14;;;;;;;35.50;18.02;;;11.50;87.30;;;;;;7381396;19;20007;-72
2023/04/03 02:38:49;;;;;;;34.53;18.17;;;11.40;87.60;;;;;;7402951;19;20010;-72
2023/04/03 02:41:18;;;;;;;36.50;17.48;;;11.30;88.10;;;;;;7382885;19;20491;-72
2023/04/03 02:43:46;;;;;;;34.65;17.80;;;11.30;88.10;;;;;;7382048;19;20007;-72
2023/04/03 02:46:15;;;;;;;31.20;17.02;;;11.30;88.10;;;;;;7380966;19;20071;-72
2023/04/03 02:48:44;;;;;;;38.47;17.27;;;11.30;88.30;;;;;;7382469;19;20013;-72
2023/04/03 02:51:13;;;;;;;34.40;18.48;;;11.10;88.60;;;;;;7381448;19;20006;-72
2023/04/03 02:53:42;;;;;;;33.45;17.75;;;11.20;88.60;;;;;;7401759;19;20016;-72
2023/04/03 02:56:13;;;;;;;34.92;18.17;;;11.30;88.90;;;;;;7383213;19;20011;-71
2023/04/03 02:58:41;;;;;;;35.63;17.50;;;11.30;88.80;;;;;;7383917;19;20407;-71
2023/04/03 03:01:10;;;;;;;33.38;17.30;;;11.20;88.00;;;;;;7384942;19;20024;-71
2023/04/03 03:03:39;;;;;;;32.03;18.65;;;11.30;89.00;;;;;;7382557;19;20007;-71
2023/04/03 03:06:10;;;;;;;30.70;17.60;;;11.30;88.20;;;;;;7382366;19;20007;-71
2023/04/03 03:08:39;;;;;;;28.73;16.57;;;11.30;88.00;;;;;;7401591;19;20015;-70
2023/04/03 03:11:08;;;;;;;32.30;16.77;;;11.30;87.80;;;;;;7381667;19;20542;-71
2023/04/03 03:13:40;;;;;;;34.30;17.70;;;11.40;87.90;;;;;;7382194;19;20006;-71
2023/04/03 03:16:09;;;;;;;35.20;17.20;;;11.40;87.70;;;;;;7381981;19;20010;-71
2023/04/03 03:18:38;;;;;;;31.70;16.23;;;11.40;87.40;;;;;;7381147;19;20263;-71
2023/04/03 03:21:07;;;;;;;28.13;16.25;;;11.40;87.10;;;;;;7380273;19;20031;-71
2023/04/03 03:23:36;;;;;;;32.20;16.15;;;11.40;86.90;;;;;;7400774;19;20310;-71
2023/04/03 03:26:07;;;;;;;37.17;17.17;;;11.40;87.00;;;;;;7380788;19;20007;-72
2023/04/03 03:28:40;;;;;;;28.42;15.73;;;11.40;87.00;;;;;;7379910;19;20028;-71
2023/04/03 03:31:09;;;;;;;35.60;16.48;;;11.40;86.70;;;;;;7381533;19;19998;-72
2023/04/03 03:33:38;;;;;;;33.78;16.88;;;11.40;87.20;;;;;;7380890;19;20010;-72
2023/04/03 03:36:08;;;;;;;31.48;15.50;;;11.40;87.60;;;;;;7381500;19;20014;-72
2023/04/03 03:38:36;;;;;;;29.38;15.80;;;11.40;87.70;;;;;;7402619;19;20016;-72
2023/04/03 03:41:05;;;;;;;27.10;15.10;;;11.30;86.90;;;;;;7380546;19;20006;-72
2023/04/03 03:43:34;;;;;;;27.20;14.65;;;11.30;87.10;;;;;;7380063;19;20020;-72
2023/04/03 03:46:05;;;;;;;28.70;14.38;;;11.30;86.80;;;;;;7380892;19;20007;-72
2023/04/03 03:48:34;;;;;;;24.52;15.05;;;11.30;86.80;;;;;;7379755;19;20003;-72
2023/04/03 03:51:02;;;;;;;26.42;15.30;;;11.30;86.80;;;;;;7378794;19;20361;-72
2023/04/03 03:53:31;;;;;;;26.15;13.88;;;11.40;86.80;;;;;;7400267;19;20315;-72
2023/04/03 03:56:00;;;;;;;30.48;15.75;;;11.40;86.60;;;;;;7380997;19;20007;-72
2023/04/03 03:58:28;;;;;;;26.13;14.70;;;11.40;86.60;;;;;;7382250;19;20003;-72
2023/04/03 04:00:57;;;;;;;27.83;14.55;;;11.30;86.40;;;;;;7381184;19;20006;-72
2023/04/03 04:03:28;;;;;;;25.30;15.48;;;11.30;86.50;;;;;;7380456;19;20003;-71
2023/04/03 04:05:57;;;;;;;23.17;12.88;;;11.30;86.60;;;;;;7380035;19;20007;-71
2023/04/03 04:08:26;;;;;;;23.05;14.13;;;11.30;86.70;;;;;;7400436;19;20006;-71
2023/04/03 04:10:55;;;;;;;20.85;13.02;;;11.20;86.60;;;;;;7379285;19;20288;-71
2023/04/03 04:13:24;;;;;;;25.98;14.02;;;11.30;86.70;;;;;;7380630;19;20007;-71
2023/04/03 04:15:52;;;;;;;23.92;14.20;;;11.30;86.80;;;;;;7379471;19;20006;-71
2023/04/03 04:18:23;;;;;;;23.55;13.70;;;11.20;86.40;;;;;;7378892;19;20013;-71
2023/04/03 04:20:54;;;;;;;30.13;12.88;;;11.30;86.50;;;;;;7378035;19;20021;-72
2023/04/03 04:23:23;;;;;;;25.55;13.82;;;11.30;86.60;;;;;;7399332;19;20074;-72
2023/04/03 04:25:52;;;;;;;25.17;12.80;;;11.30;86.50;;;;;;7378797;19;20098;-71
2023/04/03 04:28:21;;;;;;;22.63;13.18;;;11.10;86.20;;;;;;7378237;19;20031;-72
2023/04/03 04:30:49;;;;;;;23.05;13.02;;;11.20;86.50;;;;;;7379929;19;20019;-72
2023/04/03 04:33:18;;;;;;;23.02;12.93;;;11.30;86.20;;;;;;7379588;19;20228;-71
2023/04/03 04:35:49;;;;;;;22.20;12.30;;;11.30;85.80;;;;;;7400721;19;20010;-72
2023/04/03 04:38:21;;;;;;;25.33;12.45;;;11.30;85.60;;;;;;7378970;19;20003;-72
2023/04/03 04:40:50;;;;;;;25.33;12.18;;;11.30;85.50;;;;;;7377713;19;20398;-72
2023/04/03 04:43:21;;;;;;;22.60;12.43;;;11.20;85.00;;;;;;7378685;19;20038;-72
2023/04/03 04:45:50;;;;;;;21.27;12.40;;;11.10;84.90;;;;;;7378156;19;20025;-72
2023/04/03 04:48:18;;;;;;;24.15;12.40;;;11.10;85.00;;;;;;7378461;19;20006;-71
2023/04/03 04:50:47;;;;;;;20.50;11.80;;;11.00;85.00;;;;;;7400929;19;20023;-71
2023/04/03 04:53:16;;;;;;;25.33;12.73;;;11.10;85.20;;;;;;7378747;19;20007;-72
2023/04/03 04:55:47;;;;;;;21.42;11.50;;;11.10;84.80;;;;;;7377551;19;20014;-72
2023/04/03 04:58:16;;;;;;;24.42;12.05;;;11.10;84.90;;;;;;7378552;19;20003;-71
2023/04/03 05:00:45;;;;;;;22.85;11.35;;;11.20;85.00;;;;;;7377711;19;20003;-72
2023/04/03 05:03:14;;;;;;;22.05;12.48;;;11.20;84.40;;;;;;7378262;19;20011;-72
2023/04/03 05:05:43;;;;;;;23.27;12.38;;;11.20;84.40;;;;;;7399709;19;20019;-71
2023/04/03 05:08:11;;;;;;;23.50;11.75;;;11.10;84.30;;;;;;7376859;19;20358;-71
2023/04/03 05:10:42;;;;;;;19.77;11.68;;;11.20;84.40;;;;;;7375894;19;20016;-71
2023/04/03 05:13:13;;;;;;;22.27;11.43;;;11.20;84.10;;;;;;7377986;19;19999;-72
2023/04/03 05:15:41;;;;;;;19.33;11.55;;;11.10;83.60;;;;;;7379286;19;20011;-72
2023/04/03 05:18:10;;;;;;;19.58;11.20;;;11.10;83.00;;;;;;7379295;19;20000;-72
2023/04/03 05:20:39;;;;;;;22.90;11.38;;;11.20;83.30;;;;;;7401739;19;20024;-72
2023/04/03 05:23:08;;;;;;;18.77;11.45;;;11.10;82.80;;;;;;7377919;19;20049;-72
2023/04/03 05:25:37;;;;;;;20.55;11.27;;;11.20;82.80;;;;;;7376576;19;20007;-72
2023/04/03 05:28:06;;;;;;;22.38;11.10;;;11.20;82.70;;;;;;7376567;19;20064;-72
2023/04/03 05:30:37;;;;;;;21.95;10.80;;;11.10;82.80;;;;;;7375814;19;20276;-72
2023/04/03 05:33:06;;;;;;;24.02;11.07;;;11.10;81.60;;;;;;7376273;19;20014;-72
2023/04/03 05:35:34;;;;;;;24.75;10.98;;;11.20;81.60;;;;;;7398938;19;20023;-72
2023/04/03 05:38:03;;;;;;;20.55;10.57;;;11.10;80.80;;;;;;7376385;19;20024;-72
2023/04/03 05:40:32;;;;;;;18.90;11.10;;;11.10;81.00;;;;;;7376748;19;20010;-72
2023/04/03 05:43:00;;;;;;;22.50;11.43;;;11.10;81.00;;;;;;7377226;19;20016;-72
2023/04/03 05:45:29;;;;;;;20.15;10.32;;;11.10;80.60;;;;;;7375619;19;20395;-72
2023/04/03 05:48:00;;;;;;;17.98;9.95;;;11.10;80.20;;;;;;7376260;19;20028;-72
2023/04/03 05:50:30;;;;;;;20.33;11.02;;;11.10;80.70;;;;;;7396094;19;20023;-72
2023/04/03 05:53:00;;;;;;;19.17;11.40;;;11.00;80.00;;;;;;7376236;19;19998;-71
2023/04/03 05:55:29;;;;;;;21.60;11.03;;;11.00;79.70;;;;;;7376714;19;20023;-71
2023/04/03 05:57:57;;;;;;;21.00;11.15;;;11.00;79.70;;;;;;7377073;19;20007;-71
2023/04/03 06:00:27;;;;;;;21.20;11.32;;;10.70;79.00;;;;;;7376704;19;20258;-71
2023/04/03 06:02:56;;;;;;;19.45;10.82;;;10.80;79.60;;;;;;7376784;19;20015;-71
2023/04/03 06:05:27;;;;;;;18.73;11.05;;;10.90;79.90;;;;;;7396398;19;20226;-71
2023/04/03 06:07:56;;;;;;;;;;;10.80;79.40;;;;;;7375798;19;20405;-71
2023/04/03 06:10:26;;;;;;;18.95;10.18;;;11.00;79.70;;;;;;7375532;19;19966;-72
2023/04/03 06:12:54;;;;;;;17.77;10.30;;;11.00;79.60;;;;;;7375520;19;20016;-72
2023/04/03 06:15:24;;;;;;;26.02;10.15;;;11.00;79.10;;;;;;7376800;19;20451;-72
2023/04/03 06:17:53;;;;;;;21.13;11.32;;;10.90;78.60;;;;;;7376560;19;20003;-72
2023/04/03 06:20:22;;;;;;;19.35;10.60;;;10.70;78.40;;;;;;7395815;19;20014;-72
2023/04/03 06:22:53;;;;;;;17.45;10.55;;;10.80;79.20;;;;;;7381883;19;20003;-72
2023/04/03 06:25:22;;;;;;;19.35;10.80;;;11.00;79.10;;;;;;7382545;19;20006;-72
2023/04/03 06:27:50;;;;;;;19.67;11.15;;;11.00;78.90;;;;;;7382890;19;20010;-72
2023/04/03 06:30:19;;;;;;;21.60;10.85;;;11.10;78.80;;;;;;7381606;19;20101;-72
2023/04/03 06:32:48;;;;;;;18.67;10.90;;;11.20;78.70;;;;;;7402817;19;20006;-72
2023/04/03 06:35:17;;;;;;;25.27;11.20;;;11.30;78.60;;;;;;7383367;19;20016;-72
2023/04/03 06:37:45;;;;;;;26.40;11.52;;;11.30;78.30;;;;;;7382474;19;20002;-72
2023/04/03 06:40:23;;;;;;;17.83;11.05;;;11.30;78.20;;;;;;7381897;19;20011;-72
2023/04/03 06:42:52;;;;;;;20.58;11.50;;;11.20;77.60;;;;;;7383120;19;20019;-72
2023/04/03 06:45:21;;;;;;;20.63;10.63;;;11.10;76.90;;;;;;7381352;19;20021;-72
2023/04/03 06:47:50;;;;;;;19.25;10.60;;;11.20;77.50;;;;;;7397861;19;20035;-72
2023/04/03 06:50:18;;;;;;;27.15;11.23;;;11.30;77.80;;;;;;7401607;19;20417;-72
2023/04/03 06:52:48;;;;;;;21.67;11.45;;;11.30;77.70;;;;;;7382148;19;20027;-72
2023/04/03 06:55:19;;;;;;;16.05;9.50;;;11.40;77.10;;;;;;7381446;19;20010;-72
2023/04/03 06:57:48;;;;;;;;;;;11.40;77.00;;;;;;7383638;19;20047;-70
2023/04/03 07:00:18;;;;;;;15.93;9.82;;;11.50;77.40;;;;;;7380797;19;19971;-71
2023/04/03 07:02:47;;;;;;;18.02;9.98;;;11.40;77.00;;;;;;7402132;19;20024;-71
2023/04/03 07:05:15;;;;;;;21.27;10.93;;;11.50;77.10;;;;;;7381677;19;20051;-72
2023/04/03 07:07:44;;;;;;;19.20;11.52;;;11.50;77.20;;;;;;7381209;19;20015;-71
2023/04/03 07:10:13;;;;;;;17.00;10.77;;;11.50;78.80;;;;;;7381468;19;20010;-71
2023/04/03 07:12:45;;;;;;;25.42;11.20;;;11.50;78.60;;;;;;7380502;19;20020;-72
2023/04/03 07:15:14;;;;;;;;;;;11.50;78.70;;;;;;7382961;19;20095;-73
2023/04/03 07:17:43;;;;;;;21.55;11.05;;;11.50;79.40;;;;;;7402572;19;19919;-73
2023/04/03 07:20:13;;;;;;;96.13;14.52;;;11.50;79.00;;;;;;7361481;19;20013;-73
2023/04/03 07:22:41;;;;;;;324.40;21.90;;;11.40;77.90;;;;;;7381239;19;20025;-72
2023/04/03 07:25:11;;;;;;;16.67;10.95;;;11.50;78.30;;;;;;7405518;19;20003;-74
2023/04/03 07:27:39;;;;;;;17.38;10.13;;;11.60;78.40;;;;;;7386113;19;20016;-74
2023/04/03 07:30:13;;;;;;;18.10;11.40;;;11.70;78.00;;;;;;7386058;19;20074;-74
2023/04/03 07:32:42;;;;;;;21.80;11.02;;;11.70;77.70;;;;;;7383649;19;19998;-74
2023/04/03 07:35:11;;;;;;;21.35;11.00;;;11.80;77.20;;;;;;7384325;19;20002;-74
2023/04/03 07:37:40;;;;;;;15.32;9.80;;;11.80;77.40;;;;;;7384580;19;20027;-73
2023/04/03 07:40:10;;;;;;;19.13;9.88;;;11.80;76.60;;;;;;7407607;19;20390;-71
2023/04/03 07:42:39;;;;;;;18.25;10.43;;;11.80;75.50;;;;;;7385513;19;20303;-72
2023/04/03 07:45:11;;;;;;;17.77;9.95;;;11.70;76.50;;;;;;7384586;19;20224;-73
2023/04/03 07:47:40;;;;;;;18.27;9.65;;;11.80;75.70;;;;;;7384793;19;20377;-73
2023/04/03 07:50:10;;;;;;;16.27;8.80;;;11.80;76.10;;;;;;7383056;19;20006;-71
2023/04/03 07:52:39;;;;;;;16.67;9.65;;;11.90;76.30;;;;;;7383022;19;20239;-71
2023/04/03 07:55:09;;;;;;;16.60;8.80;;;11.90;76.20;;;;;;7402321;19;20023;-74
2023/04/03 07:57:37;;;;;;;17.73;9.35;;;11.90;75.80;;;;;;7382285;19;20003;-72
2023/04/03 08:00:08;;;;;;;15.35;8.68;;;11.90;75.50;;;;;;7381849;19;20007;-73
2023/04/03 08:02:39;;;;;;;16.67;9.38;;;11.90;75.60;;;;;;7381990;19;20064;-75
2023/04/03 08:05:09;;;;;;;13.88;8.68;;;11.90;75.80;;;;;;7383142;19;20007;-75
2023/04/03 08:07:39;;;;;;;16.05;8.73;;;12.00;75.70;;;;;;7382071;19;20023;-73
2023/04/03 08:10:09;;;;;;;17.67;9.88;;;12.00;75.50;;;;;;7402139;19;20015;-73
2023/04/03 08:12:38;;;;;;;15.70;9.13;;;12.10;75.40;;;;;;7381639;19;20366;-73
2023/04/03 08:15:09;;;;;;;14.70;8.82;;;11.90;74.70;;;;;;7381733;19;20007;-73
2023/04/03 08:17:40;;;;;;;16.20;8.37;;;12.00;75.70;;;;;;7382387;19;20013;-73
2023/04/03 08:20:12;;;;;;;15.00;8.63;;;12.10;76.00;;;;;;7382962;19;20003;-73
2023/04/03 08:22:41;;;;;;;18.13;8.95;;;12.20;75.90;;;;;;7380658;19;20007;-74
2023/04/03 08:25:11;;;;;;;17.60;8.43;;;12.30;75.80;;;;;;7403928;19;20031;-75
2023/04/03 08:27:39;;;;;;;15.38;8.63;;;12.30;75.30;;;;;;7381793;19;20010;-75
2023/04/03 08:30:10;;;;;;;11.95;7.03;;;12.40;75.00;;;;;;7381228;19;20137;-77
2023/04/03 08:32:42;;;;;;;12.40;6.73;;;12.50;75.00;;;;;;7384642;19;20031;-75
2023/04/03 08:35:11;;;;;;;13.75;8.35;;;12.50;74.70;;;;;;7382950;19;20227;-74
2023/04/03 08:37:41;;;;;;;11.77;6.65;;;12.60;74.40;;;;;;7383650;19;20007;-76
2023/04/03 08:40:15;;;;;;;7.75;5.47;;;12.70;74.60;;;;;;7405540;19;20014;-75
2023/04/03 08:42:54;;;;;;;9.25;5.43;;;12.70;73.80;;;;;;7385019;19;20007;-76
2023/04/03 08:45:28;;;;;;;13.05;5.93;;;12.70;73.50;;;;;;7381641;19;20002;-74
2023/04/03 08:48:07;;;;;;;9.88;5.32;;;12.80;73.00;;;;;;7381880;19;20006;-73
2023/04/03 08:50:41;;;;;;;7.57;5.32;;;12.80;73.70;;;;;;7381200;19;20082;-73
2023/04/03 08:53:18;;;;;;;8.35;5.53;;;12.80;71.90;;;;;;7382591;19;20002;-73
2023/04/03 08:55:49;;;;;;;9.73;5.03;;;12.70;71.70;;;;;;7380786;19;20062;-73
2023/04/03 08:58:21;;;;;;;9.57;4.68;;;12.70;72.00;;;;;;7405979;19;20015;-74
2023/04/03 09:00:53;;;;;;;11.23;4.70;;;12.70;71.60;;;;;;7383838;19;20007;-74
2023/04/03 09:03:26;;;;;;;7.35;4.88;;;12.70;71.20;;;;;;7382959;19;20023;-73
2023/04/03 09:05:59;;;;;;;10.32;4.55;;;12.80;71.70;;;;;;7380041;19;20016;-73
2023/04/03 09:08:31;;;;;;;7.07;4.75;;;12.80;71.60;;;;;;7380764;19;20026;-74
2023/04/03 09:11:12;;;;;;;8.43;4.30;;;12.80;70.80;;;;;;7381231;19;20003;-74
2023/04/03 09:13:52;;;;;;;6.40;4.40;;;12.80;71.30;;;;;;7380664;19;20010;-74
2023/04/03 09:16:30;;;;;;;5.20;3.78;;;12.90;71.30;;;;;;7402557;19;20255;-75
2023/04/03 09:19:10;;;;;;;9.68;3.95;;;13.00;71.40;;;;;;7380131;19;20015;-74
2023/04/03 09:21:42;;;;;;;5.45;4.05;;;13.00;70.50;;;;;;7379790;19;20003;-74
2023/04/03 09:24:13;;;;;;;8.02;4.50;;;13.00;69.50;;;;;;7379553;19;20007;-75
2023/04/03 09:26:46;;;;;;;8.13;3.90;;;13.00;69.40;;;;;;7380441;19;20326;-74
2023/04/03 09:29:20;;;;;;;7.38;4.47;;;12.90;69.50;;;;;;7380233;19;20014;-73
2023/04/03 09:31:51;;;;;;;6.80;4.13;;;12.50;68.50;;;;;;7382371;19;20235;-73
2023/04/03 09:34:26;;;;;;;7.53;4.10;;;12.60;69.30;;;;;;7401556;19;20006;-73
2023/04/03 09:36:56;;;;;;;7.20;3.67;;;12.50;70.20;;;;;;7381360;19;20018;-74
2023/04/03 09:39:27;;;;;;;6.88;3.88;;;12.60;71.10;;;;;;7379849;19;20006;-74
2023/04/03 09:42:07;;;;;;;6.20;4.20;;;12.70;71.60;;;;;;7379174;19;20010;-74
2023/04/03 09:44:38;;;;;;;8.38;3.90;;;12.80;70.90;;;;;;7378748;19;20006;-72
2023/04/03 09:47:22;;;;;;;9.02;4.03;;;12.90;70.00;;;;;;7378524;19;20015;-75
2023/04/03 09:50:10;;;;;;;11.75;4.10;;;12.70;71.60;;;;;;7379604;19;20044;-73
2023/04/03 09:52:40;;;;;;;9.55;4.40;;;12.70;71.30;;;;;;7380429;19;20010;-74
2023/04/03 09:55:11;;;;;;;8.82;4.05;;;12.80;71.60;;;;;;7406214;19;20038;-75
2023/04/03 09:57:39;;;;;;;6.45;3.97;;;12.70;70.80;;;;;;7389521;19;20413;-74
2023/04/03 10:00:21;;;;;;;5.70;3.65;;;12.60;69.40;;;;;;7386457;19;20102;-74
2023/04/03 10:02:53;;;;;;;9.20;3.67;;;12.70;69.60;;;;;;7390265;19;19999;-76
2023/04/03 10:05:36;;;;;;;7.75;4.03;;;12.70;70.00;;;;;;7389147;19;20007;-75
2023/04/03 10:08:13;;;;;;;8.27;3.95;;;12.60;68.90;;;;;;7388836;19;20030;-76
2023/04/03 10:10:43;;;;;;;9.02;4.43;;;12.60;69.90;;;;;;7387219;19;20020;-76
2023/04/03 10:13:18;;;;;;;7.40;3.95;;;12.50;70.50;;;;;;7408843;19;20007;-76
2023/04/03 10:15:49;;;;;;;6.60;3.60;;;12.60;70.80;;;;;;7388644;19;20013;-73
2023/04/03 10:18:32;;;;;;;7.50;4.05;;;12.40;71.40;;;;;;7387055;19;20061;-72
2023/04/03 10:21:12;;;;;;;9.32;3.90;;;12.40;71.60;;;;;;7386990;19;20025;-74
2023/04/03 10:23:46;;;;;;;13.00;3.65;;;12.50;71.20;;;;;;7388109;19;20010;-74
2023/04/03 10:26:23;;;;;;;12.38;4.38;;;12.50;71.50;;;;;;7385903;19;20019;-73
2023/04/03 10:28:59;;;;;;;18.55;3.90;;;12.50;71.00;;;;;;7385489;19;20084;-74
2023/04/03 10:31:37;;;;;;;5.15;3.40;;;12.50;71.00;;;;;;7409362;19;20034;-75
2023/04/03 10:34:16;;;;;;;8.57;4.22;;;12.50;71.40;;;;;;7388020;19;20366;-73
2023/04/03 10:36:56;;;;;;;6.22;4.07;;;12.50;71.40;;;;;;7386966;19;20032;-75
2023/04/03 10:39:32;;;;;;;5.45;4.00;;;12.50;71.70;;;;;;7385574;19;20019;-71
2023/04/03 10:42:09;;;;;;;5.47;3.83;;;12.60;72.20;;;;;;7384629;19;20420;-71
2023/04/03 10:44:48;;;;;;;6.78;4.00;;;12.60;72.30;;;;;;7385452;19;20038;-71
2023/04/03 10:47:22;;;;;;;8.15;4.07;;;12.60;71.70;;;;;;7385344;19;20027;-71
2023/04/03 10:50:01;;;;;;;8.48;3.90;;;12.50;71.70;;;;;;7385281;19;20020;-71
2023/04/03 10:52:42;;;;;;;5.13;3.30;;;12.60;70.50;;;;;;7406757;19;20218;-72
2023/04/03 10:55:31;;;;;;;7.82;3.72;;;12.60;70.80;;;;;;7384464;19;20028;-71
2023/04/03 10:58:02;;;;;;;5.85;3.83;;;12.60;69.20;;;;;;7384476;19;20011;-72
2023/04/03 11:00:38;;;;;;;4.85;3.17;;;12.70;69.00;;;;;;7384407;19;20397;-72
2023/04/03 11:03:13;;;;;;;5.53;3.50;;;12.70;69.40;;;;;;7384769;19;20219;-71
2023/04/03 11:05:46;;;;;;;9.93;4.07;;;12.70;68.40;;;;;;7384592;19;20357;-72
2023/04/03 11:08:27;;;;;;;9.13;3.80;;;12.90;69.20;;;;;;7383490;19;20005;-73
2023/04/03 11:11:00;;;;;;;6.78;3.50;;;12.90;69.10;;;;;;7385309;19;20271;-71
2023/04/03 11:13:36;;;;;;;6.53;3.28;;;12.90;67.80;;;;;;7407666;19;20038;-71
2023/04/03 11:16:07;;;;;;;6.72;3.20;;;12.90;67.10;;;;;;7384275;19;19998;-72
2023/04/03 11:18:44;;;;;;;9.57;3.35;;;13.00;67.10;;;;;;7383908;19;20010;-71
2023/04/03 11:21:21;;;;;;;5.63;3.22;;;13.00;66.60;;;;;;7384130;19;20316;-71
2023/04/03 11:23:54;;;;;;;8.30;3.85;;;13.10;67.50;;;;;;7384965;19;20288;-71
2023/04/03 11:26:28;;;;;;;8.45;3.97;;;13.10;67.80;;;;;;7385299;19;20006;-71
2023/04/03 11:29:01;;;;;;;6.78;3.53;;;13.20;67.20;;;;;;7384176;19;20006;-71
2023/04/03 11:31:42;;;;;;;6.93;3.83;;;13.20;67.10;;;;;;7403223;19;20017;-71
2023/04/03 11:34:21;;;;;;;6.68;3.83;;;13.20;65.60;;;;;;7406079;19;20028;-71
2023/04/03 11:36:53;;;;;;;10.60;4.20;;;13.30;65.50;;;;;;7383712;19;20011;-71
2023/04/03 11:39:28;;;;;;;6.93;3.90;;;13.30;65.80;;;;;;7384061;19;20055;-71
2023/04/03 11:41:57;;;;;;;7.00;3.80;;;13.10;65.50;;;;;;7383746;19;20006;-71
2023/04/03 11:44:38;;;;;;;7.53;3.63;;;13.10;65.80;;;;;;7382335;19;20070;-71
2023/04/03 11:47:08;;;;;;;8.23;3.88;;;13.10;66.70;;;;;;7382884;19;20010;-71
2023/04/03 11:49:57;;;;;;;6.13;3.38;;;13.30;66.20;;;;;;7382887;19;20011;-71
2023/04/03 11:53:05;;;;;;;6.85;2.50;;;13.30;64.40;;;;;;7405113;19;20104;-72
2023/04/03 11:56:01;;;;;;;6.18;3.05;;;13.40;65.40;;;;;;7278159;19;2004487;-72
2023/04/03 11:58:32;;;;;;;4.80;2.88;;;13.50;65.10;;;;;;7401799;19;20006;-72
2023/04/03 12:01:08;;;;;;;7.05;3.30;;;13.60;64.60;;;;;;7380294;19;20007;-72
2023/04/03 12:04:02;;;;;;;6.95;3.33;;;13.70;63.90;;;;;;7380001;19;20006;-72
2023/04/03 12:06:55;;;;;;;6.07;3.45;;;13.80;65.20;;;;;;7379885;19;20023;-72
2023/04/03 12:09:37;;;;;;;6.25;3.13;;;13.70;65.60;;;;;;7379484;19;20016;-73
2023/04/03 12:12:28;;;;;;;11.40;3.35;;;13.40;65.40;;;;;;7379523;19;20323;-72
2023/04/03 12:14:57;;;;;;;6.88;3.38;;;13.50;65.40;;;;;;7381023;19;20098;-72
2023/04/03 12:17:30;;;;;;;9.95;3.13;;;13.60;62.50;;;;;;7381646;19;20006;-73
2023/04/03 12:19:59;;;;;;;5.97;3.17;;;13.60;63.10;;;;;;7378248;19;20003;-72
2023/04/03 12:22:28;;;;;;;8.40;3.30;;;13.80;63.50;;;;;;7402451;19;20036;-72
2023/04/03 12:24:57;;;;;;;16.88;3.35;;;13.90;63.80;;;;;;7377337;19;20505;-71
2023/04/03 12:36:36;;;;;;;7.28;2.90;;;13.80;62.00;;;;;;7397885;19;20354;-71
2023/04/03 12:39:16;;;;;;;4.88;3.05;;;13.80;61.90;;;;;;7381764;19;20007;-71
2023/04/03 12:41:53;;;;;;;7.18;2.50;;;14.00;61.00;;;;;;7381557;19;20018;-72
2023/04/03 12:44:36;;;;;;;9.00;2.40;;;14.20;61.60;;;;;;7380445;19;20003;-71
2023/04/03 12:47:22;;;;;;;5.93;2.50;;;14.30;61.20;;;;;;7379705;19;20003;-72
2023/04/03 12:49:53;;;;;;;5.60;2.70;;;14.40;60.50;;;;;;7380779;19;20355;-71
2023/04/03 12:52:34;;;;;;;4.53;2.90;;;14.50;60.60;;;;;;7401362;19;20066;-71
2023/04/03 12:55:05;;;;;;;7.28;2.70;;;14.50;60.10;;;;;;7380660;19;20015;-71
2023/04/03 12:57:35;;;;;;;6.57;2.80;;;14.60;60.90;;;;;;7379976;19;20010;-73
2023/04/03 13:00:23;;;;;;;7.55;2.88;;;14.60;60.50;;;;;;7380240;19;20034;-71
2023/04/03 13:02:52;;;;;;;5.20;2.28;;;14.80;61.60;;;;;;7380877;19;20023;-71
2023/04/03 13:05:23;;;;;;;3.92;2.10;;;14.90;60.30;;;;;;7380772;19;20439;-71
2023/04/03 13:07:58;;;;;;;6.32;2.47;;;15.00;60.90;;;;;;7380852;19;20052;-69